TimeCST,TemperatureF,Dew PointF,Humidity,Sea Level PressureIn,VisibilityMPH,Wind Direction,Wind SpeedMPH,Gust SpeedMPH,PrecipitationIn,Events,Conditions,WindDirDegrees,DateUTC
12:15 AM,39.0,34.0,82,30.29,10.0,Calm,Calm,-,N/A,,Clear,0,2013-02-17 06:15:00
12:35 AM,38.3,34.7,87,30.29,10.0,Calm,Calm,-,N/A,,Clear,0,2013-02-17 06:35:00
12:55 AM,37.8,35.1,90,30.29,10.0,Calm,Calm,-,N/A,,Clear,0,2013-02-17 06:55:00
1:15 AM,37.0,34.7,91,30.29,10.0,Calm,Calm,-,N/A,,Clear,0,2013-02-17 07:15:00
1:35 AM,38.3,34.9,87,30.29,10.0,Calm,Calm,-,N/A,,Clear,0,2013-02-17 07:35:00
1:55 AM,38.7,34.9,86,30.28,10.0,Calm,Calm,-,N/A,,Clear,0,2013-02-17 07:55:00
2:15 AM,36.7,34.0,90,30.28,10.0,Calm,Calm,-,N/A,,Clear,0,2013-02-17 08:15:00
2:35 AM,36.9,34.5,91,30.28,10.0,Calm,Calm,-,N/A,,Clear,0,2013-02-17 08:35:00
2:55 AM,37.9,34.7,88,30.28,10.0,Calm,Calm,-,N/A,,Clear,0,2013-02-17 08:55:00
3:15 AM,38.5,34.7,86,30.28,10.0,Calm,Calm,-,N/A,,Clear,0,2013-02-17 09:15:00
3:35 AM,38.5,34.7,86,30.28,10.0,Calm,Calm,-,N/A,,Clear,0,2013-02-17 09:35:00
3:55 AM,38.7,34.5,85,30.27,10.0,East,3.5,-,N/A,,Clear,80,2013-02-17 09:55:00
4:15 AM,39.0,34.5,84,30.27,10.0,Calm,Calm,-,N/A,,Clear,0,2013-02-17 10:15:00
4:35 AM,38.3,33.6,83,30.28,10.0,Calm,Calm,-,N/A,,Clear,0,2013-02-17 10:35:00
4:55 AM,39.2,33.8,81,30.28,10.0,Calm,Calm,-,N/A,,Clear,0,2013-02-17 10:55:00
5:15 AM,38.7,33.6,82,30.28,10.0,Calm,Calm,-,N/A,,Clear,0,2013-02-17 11:15:00
5:35 AM,39.2,33.8,81,30.28,10.0,Calm,Calm,-,N/A,,Clear,0,2013-02-17 11:35:00
5:55 AM,39.0,34.3,83,30.28,10.0,Calm,Calm,-,N/A,,Clear,0,2013-02-17 11:55:00
6:00 AM,39.2,33.8,81,30.28,10.0,Calm,Calm,-,N/A,,Clear,0,2013-02-17 12:00:00
6:50 AM,39.2,35.6,87,30.28,10.0,Calm,Calm,-,N/A,,Clear,0,2013-02-17 12:50:00
7:50 AM,42.8,39.2,87,30.29,10.0,Calm,Calm,-,N/A,,Clear,0,2013-02-17 13:50:00
8:50 AM,51.8,44.6,76,30.30,10.0,ESE,4.6,-,N/A,,Clear,120,2013-02-17 14:50:00
9:56 AM,59.0,44.6,59,30.30,10.0,SSE,6.9,-,N/A,,Clear,150,2013-02-17 15:56:00
10:58 AM,64.4,42.8,45,30.29,10.0,South,11.5,20.7,N/A,,Clear,170,2013-02-17 16:58:00
11:50 AM,64.4,41.0,42,30.27,10.0,South,11.5,20.7,N/A,,Clear,190,2013-02-17 17:50:00
12:58 PM,66.2,42.8,43,30.24,10.0,SSW,12.7,20.7,N/A,,Scattered Clouds,200,2013-02-17 18:58:00
1:50 PM,66.2,42.8,43,30.22,10.0,South,17.3,25.3,N/A,,Scattered Clouds,190,2013-02-17 19:50:00
2:50 PM,66.2,42.8,43,30.21,10.0,South,18.4,25.3,N/A,,Scattered Clouds,190,2013-02-17 20:50:00
3:55 PM,64.4,41.0,42,30.19,10.0,ESE,16.1,-,N/A,,Scattered Clouds,120,2013-02-17 21:55:00
4:50 PM,62.6,42.8,48,30.19,10.0,South,16.1,-,N/A,,Scattered Clouds,180,2013-02-17 22:50:00
5:50 PM,59.0,44.6,59,30.18,10.0,South,10.4,16.1,N/A,,Clear,170,2013-02-17 23:50:00
6:45 PM,51.8,44.6,76,30.17,10.0,SE,8.1,-,N/A,,Clear,140,2013-02-18 00:45:00
7:50 PM,48.2,44.6,87,30.17,10.0,SE,6.9,-,N/A,,Clear,140,2013-02-18 01:50:00
8:52 PM,48.2,44.6,87,30.18,10.0,SSE,5.8,-,N/A,,Clear,150,2013-02-18 02:52:00
9:47 PM,48.2,44.6,87,30.18,10.0,SSE,6.9,-,N/A,,Clear,150,2013-02-18 03:47:00
10:15 PM,49.5,45.5,86,30.18,10.0,SSE,8.1,-,N/A,,Clear,150,2013-02-18 04:15:00
10:35 PM,50.2,45.7,85,30.17,10.0,SE,8.1,-,N/A,,Clear,140,2013-02-18 04:35:00
10:55 PM,50.2,45.3,83,30.17,10.0,SSE,6.9,-,N/A,,Clear,150,2013-02-18 04:55:00
11:15 PM,50.2,45.5,84,30.17,10.0,SSE,5.8,-,N/A,,Scattered Clouds,150,2013-02-18 05:15:00
11:35 PM,50.2,45.7,85,30.16,10.0,SE,8.1,-,N/A,,Scattered Clouds,140,2013-02-18 05:35:00
11:55 PM,51.1,46.4,84,30.16,10.0,SE,8.1,-,N/A,,Clear,140,2013-02-18 05:55:00